sensor_id;sensor_type;location;lat;lon;timestamp;P1;durP1;ratioP1;P2;durP2;ratioP2
39190;SDS011;24916;51.676;6.614;2023-06-14T00:00:06;7.80;;;3.43;;
39190;SDS011;24916;51.676;6.614;2023-06-14T00:02:32;8.27;;;3.83;;
39190;SDS011;24916;51.676;6.614;2023-06-14T00:04:58;6.90;;;3.83;;
39190;SDS011;24916;51.676;6.614;2023-06-14T00:07:33;5.20;;;3.47;;
39190;SDS011;24916;51.676;6.614;2023-06-14T00:09:58;6.50;;;3.60;;
39190;SDS011;24916;51.676;6.614;2023-06-14T00:12:23;7.73;;;3.83;;
39190;SDS011;24916;51.676;6.614;2023-06-14T00:14:49;6.15;;;3.50;;
39190;SDS011;24916;51.676;6.614;2023-06-14T00:17:14;4.80;;;3.27;;
39190;SDS011;24916;51.676;6.614;2023-06-14T00:19:41;8.65;;;3.70;;
39190;SDS011;24916;51.676;6.614;2023-06-14T00:22:06;6.28;;;3.25;;
39190;SDS011;24916;51.676;6.614;2023-06-14T00:24:31;4.13;;;3.27;;
39190;SDS011;24916;51.676;6.614;2023-06-14T00:26:57;5.53;;;3.43;;
39190;SDS011;24916;51.676;6.614;2023-06-14T00:29:22;10.73;;;3.70;;
39190;SDS011;24916;51.676;6.614;2023-06-14T00:31:47;9.07;;;3.72;;
39190;SDS011;24916;51.676;6.614;2023-06-14T00:34:13;7.07;;;3.60;;
39190;SDS011;24916;51.676;6.614;2023-06-14T00:36:38;5.38;;;3.20;;
39190;SDS011;24916;51.676;6.614;2023-06-14T00:39:03;4.60;;;3.40;;
39190;SDS011;24916;51.676;6.614;2023-06-14T00:41:28;7.53;;;3.42;;
39190;SDS011;24916;51.676;6.614;2023-06-14T00:43:54;4.68;;;3.40;;
39190;SDS011;24916;51.676;6.614;2023-06-14T00:46:21;7.70;;;3.75;;
39190;SDS011;24916;51.676;6.614;2023-06-14T00:48:47;6.95;;;3.05;;
39190;SDS011;24916;51.676;6.614;2023-06-14T00:51:12;12.90;;;3.08;;
39190;SDS011;24916;51.676;6.614;2023-06-14T00:53:37;4.03;;;3.20;;
39190;SDS011;24916;51.676;6.614;2023-06-14T00:56:04;4.47;;;2.88;;
39190;SDS011;24916;51.676;6.614;2023-06-14T00:58:30;5.63;;;3.08;;
39190;SDS011;24916;51.676;6.614;2023-06-14T01:00:55;8.30;;;2.97;;
39190;SDS011;24916;51.676;6.614;2023-06-14T01:03:21;8.75;;;3.38;;
39190;SDS011;24916;51.676;6.614;2023-06-14T01:05:49;4.63;;;3.35;;
39190;SDS011;24916;51.676;6.614;2023-06-14T01:10:47;6.95;;;2.92;;
39190;SDS011;24916;51.676;6.614;2023-06-14T01:15:47;6.85;;;2.92;;
39190;SDS011;24916;51.676;6.614;2023-06-14T01:18:12;3.70;;;3.00;;
39190;SDS011;24916;51.676;6.614;2023-06-14T01:20:44;3.53;;;2.97;;
39190;SDS011;24916;51.676;6.614;2023-06-14T01:23:19;6.78;;;2.88;;
39190;SDS011;24916;51.676;6.614;2023-06-14T01:25:45;8.20;;;2.85;;
39190;SDS011;24916;51.676;6.614;2023-06-14T01:28:12;5.80;;;2.92;;
39190;SDS011;24916;51.676;6.614;2023-06-14T01:30:41;6.75;;;2.88;;
39190;SDS011;24916;51.676;6.614;2023-06-14T01:33:14;9.98;;;3.35;;
39190;SDS011;24916;51.676;6.614;2023-06-14T01:35:58;4.78;;;2.80;;
39190;SDS011;24916;51.676;6.614;2023-06-14T01:38:24;9.75;;;3.05;;
39190;SDS011;24916;51.676;6.614;2023-06-14T01:40:50;6.57;;;3.03;;
39190;SDS011;24916;51.676;6.614;2023-06-14T01:43:16;5.03;;;3.30;;
39190;SDS011;24916;51.676;6.614;2023-06-14T01:45:44;5.10;;;3.00;;
39190;SDS011;24916;51.676;6.614;2023-06-14T01:48:10;4.20;;;3.05;;
39190;SDS011;24916;51.676;6.614;2023-06-14T01:50:35;3.85;;;2.50;;
39190;SDS011;24916;51.676;6.614;2023-06-14T01:53:00;7.23;;;2.93;;
39190;SDS011;24916;51.676;6.614;2023-06-14T01:55:26;6.43;;;2.78;;
39190;SDS011;24916;51.676;6.614;2023-06-14T01:57:51;3.90;;;2.60;;
39190;SDS011;24916;51.676;6.614;2023-06-14T02:00:17;8.88;;;3.30;;
39190;SDS011;24916;51.676;6.614;2023-06-14T02:02:43;8.68;;;3.10;;
39190;SDS011;24916;51.676;6.614;2023-06-14T02:05:08;6.25;;;3.00;;
39190;SDS011;24916;51.676;6.614;2023-06-14T02:07:33;7.05;;;2.83;;
39190;SDS011;24916;51.676;6.614;2023-06-14T02:09:59;8.48;;;3.22;;
39190;SDS011;24916;51.676;6.614;2023-06-14T02:12:24;5.63;;;2.80;;
39190;SDS011;24916;51.676;6.614;2023-06-14T02:14:49;6.63;;;3.17;;
39190;SDS011;24916;51.676;6.614;2023-06-14T02:17:15;8.53;;;2.83;;
39190;SDS011;24916;51.676;6.614;2023-06-14T02:19:41;5.28;;;3.13;;
39190;SDS011;24916;51.676;6.614;2023-06-14T02:22:06;5.05;;;3.03;;
39190;SDS011;24916;51.676;6.614;2023-06-14T02:24:31;6.70;;;2.67;;
39190;SDS011;24916;51.676;6.614;2023-06-14T02:26:57;4.75;;;2.90;;
39190;SDS011;24916;51.676;6.614;2023-06-14T02:29:22;27.13;;;3.20;;
39190;SDS011;24916;51.676;6.614;2023-06-14T02:31:47;12.00;;;3.10;;
39190;SDS011;24916;51.676;6.614;2023-06-14T02:34:13;2.60;;;2.20;;
39190;SDS011;24916;51.676;6.614;2023-06-14T02:36:39;5.65;;;2.70;;
39190;SDS011;24916;51.676;6.614;2023-06-14T02:39:06;4.55;;;2.83;;
39190;SDS011;24916;51.676;6.614;2023-06-14T02:41:31;3.92;;;2.95;;
39190;SDS011;24916;51.676;6.614;2023-06-14T02:43:57;5.22;;;3.10;;
39190;SDS011;24916;51.676;6.614;2023-06-14T02:46:23;8.98;;;2.80;;
39190;SDS011;24916;51.676;6.614;2023-06-14T02:48:48;6.53;;;3.17;;
39190;SDS011;24916;51.676;6.614;2023-06-14T02:51:14;8.80;;;2.88;;
39190;SDS011;24916;51.676;6.614;2023-06-14T02:53:39;4.43;;;2.70;;
39190;SDS011;24916;51.676;6.614;2023-06-14T02:56:05;6.15;;;2.45;;
39190;SDS011;24916;51.676;6.614;2023-06-14T02:58:30;4.35;;;2.72;;
39190;SDS011;24916;51.676;6.614;2023-06-14T03:00:56;5.15;;;2.63;;
39190;SDS011;24916;51.676;6.614;2023-06-14T03:03:21;5.60;;;2.63;;
39190;SDS011;24916;51.676;6.614;2023-06-14T03:05:49;3.95;;;2.60;;
39190;SDS011;24916;51.676;6.614;2023-06-14T03:08:16;5.63;;;2.85;;
39190;SDS011;24916;51.676;6.614;2023-06-14T03:10:44;7.82;;;2.97;;
39190;SDS011;24916;51.676;6.614;2023-06-14T03:13:09;3.97;;;2.58;;
39190;SDS011;24916;51.676;6.614;2023-06-14T03:15:36;6.22;;;3.03;;
39190;SDS011;24916;51.676;6.614;2023-06-14T03:18:01;5.75;;;2.72;;
39190;SDS011;24916;51.676;6.614;2023-06-14T03:20:26;10.98;;;2.70;;
39190;SDS011;24916;51.676;6.614;2023-06-14T03:22:54;3.70;;;2.45;;
39190;SDS011;24916;51.676;6.614;2023-06-14T03:25:19;5.97;;;2.63;;
39190;SDS011;24916;51.676;6.614;2023-06-14T03:27:46;6.30;;;2.47;;
39190;SDS011;24916;51.676;6.614;2023-06-14T03:30:12;4.07;;;2.55;;
39190;SDS011;24916;51.676;6.614;2023-06-14T03:32:37;6.53;;;2.85;;
39190;SDS011;24916;51.676;6.614;2023-06-14T03:35:02;7.97;;;2.30;;
39190;SDS011;24916;51.676;6.614;2023-06-14T03:37:27;8.23;;;2.58;;
39190;SDS011;24916;51.676;6.614;2023-06-14T03:39:53;8.73;;;3.07;;
39190;SDS011;24916;51.676;6.614;2023-06-14T03:42:19;6.30;;;2.60;;
39190;SDS011;24916;51.676;6.614;2023-06-14T03:44:44;4.60;;;2.63;;
39190;SDS011;24916;51.676;6.614;2023-06-14T03:47:09;7.33;;;2.80;;
39190;SDS011;24916;51.676;6.614;2023-06-14T03:49:34;4.88;;;2.53;;
39190;SDS011;24916;51.676;6.614;2023-06-14T03:52:00;7.05;;;2.28;;
39190;SDS011;24916;51.676;6.614;2023-06-14T03:54:25;4.37;;;2.83;;
39190;SDS011;24916;51.676;6.614;2023-06-14T03:56:51;5.75;;;2.38;;
39190;SDS011;24916;51.676;6.614;2023-06-14T03:59:16;7.17;;;2.30;;
39190;SDS011;24916;51.676;6.614;2023-06-14T04:01:41;7.37;;;2.23;;
39190;SDS011;24916;51.676;6.614;2023-06-14T04:04:09;4.13;;;2.60;;
39190;SDS011;24916;51.676;6.614;2023-06-14T04:06:35;9.15;;;3.10;;
39190;SDS011;24916;51.676;6.614;2023-06-14T04:09:00;8.07;;;2.50;;
39190;SDS011;24916;51.676;6.614;2023-06-14T04:11:29;6.38;;;2.65;;
39190;SDS011;24916;51.676;6.614;2023-06-14T04:13:54;5.18;;;2.60;;
39190;SDS011;24916;51.676;6.614;2023-06-14T04:16:21;4.45;;;2.78;;
39190;SDS011;24916;51.676;6.614;2023-06-14T04:18:46;3.45;;;1.92;;
39190;SDS011;24916;51.676;6.614;2023-06-14T04:21:13;5.80;;;2.63;;
39190;SDS011;24916;51.676;6.614;2023-06-14T04:23:38;6.43;;;2.47;;
39190;SDS011;24916;51.676;6.614;2023-06-14T04:26:03;4.63;;;3.00;;
39190;SDS011;24916;51.676;6.614;2023-06-14T04:28:29;7.07;;;2.92;;
39190;SDS011;24916;51.676;6.614;2023-06-14T04:30:55;4.47;;;2.40;;
39190;SDS011;24916;51.676;6.614;2023-06-14T04:33:20;4.97;;;2.13;;
39190;SDS011;24916;51.676;6.614;2023-06-14T04:35:45;4.88;;;2.78;;
39190;SDS011;24916;51.676;6.614;2023-06-14T04:38:12;4.13;;;2.00;;
39190;SDS011;24916;51.676;6.614;2023-06-14T04:40:37;5.70;;;2.70;;
39190;SDS011;24916;51.676;6.614;2023-06-14T04:43:07;3.30;;;2.03;;
39190;SDS011;24916;51.676;6.614;2023-06-14T04:45:33;7.45;;;2.42;;
39190;SDS011;24916;51.676;6.614;2023-06-14T04:47:58;6.93;;;2.50;;
39190;SDS011;24916;51.676;6.614;2023-06-14T04:50:24;3.75;;;2.20;;
39190;SDS011;24916;51.676;6.614;2023-06-14T04:52:49;5.32;;;2.25;;
39190;SDS011;24916;51.676;6.614;2023-06-14T04:55:16;3.85;;;2.05;;
39190;SDS011;24916;51.676;6.614;2023-06-14T04:57:41;3.45;;;2.33;;
39190;SDS011;24916;51.676;6.614;2023-06-14T05:00:07;7.22;;;2.40;;
39190;SDS011;24916;51.676;6.614;2023-06-14T05:02:32;7.28;;;2.10;;
39190;SDS011;24916;51.676;6.614;2023-06-14T05:04:58;8.63;;;2.75;;
39190;SDS011;24916;51.676;6.614;2023-06-14T05:07:24;6.78;;;1.90;;
39190;SDS011;24916;51.676;6.614;2023-06-14T05:09:49;5.40;;;2.45;;
39190;SDS011;24916;51.676;6.614;2023-06-14T05:12:14;8.27;;;2.10;;
39190;SDS011;24916;51.676;6.614;2023-06-14T05:14:43;4.88;;;1.90;;
39190;SDS011;24916;51.676;6.614;2023-06-14T05:17:08;6.07;;;2.13;;
39190;SDS011;24916;51.676;6.614;2023-06-14T05:19:34;7.18;;;2.13;;
39190;SDS011;24916;51.676;6.614;2023-06-14T05:21:59;6.70;;;2.17;;
39190;SDS011;24916;51.676;6.614;2023-06-14T05:24:24;6.00;;;2.05;;
39190;SDS011;24916;51.676;6.614;2023-06-14T05:26:50;3.35;;;2.08;;
39190;SDS011;24916;51.676;6.614;2023-06-14T05:29:15;4.88;;;2.20;;
39190;SDS011;24916;51.676;6.614;2023-06-14T05:31:40;5.10;;;2.10;;
39190;SDS011;24916;51.676;6.614;2023-06-14T05:34:06;9.20;;;2.57;;
39190;SDS011;24916;51.676;6.614;2023-06-14T05:36:31;8.43;;;2.00;;
39190;SDS011;24916;51.676;6.614;2023-06-14T05:38:56;7.50;;;2.30;;
39190;SDS011;24916;51.676;6.614;2023-06-14T05:41:25;6.65;;;2.35;;
39190;SDS011;24916;51.676;6.614;2023-06-14T05:43:51;5.85;;;2.00;;
39190;SDS011;24916;51.676;6.614;2023-06-14T05:46:16;14.82;;;2.28;;
39190;SDS011;24916;51.676;6.614;2023-06-14T05:48:46;4.03;;;2.20;;
39190;SDS011;24916;51.676;6.614;2023-06-14T05:51:12;5.60;;;2.15;;
39190;SDS011;24916;51.676;6.614;2023-06-14T05:53:37;2.80;;;1.93;;
39190;SDS011;24916;51.676;6.614;2023-06-14T05:56:02;10.03;;;2.07;;
39190;SDS011;24916;51.676;6.614;2023-06-14T05:58:27;6.45;;;2.30;;
39190;SDS011;24916;51.676;6.614;2023-06-14T06:00:53;2.53;;;2.10;;
39190;SDS011;24916;51.676;6.614;2023-06-14T06:03:18;2.25;;;1.63;;
39190;SDS011;24916;51.676;6.614;2023-06-14T06:05:44;5.15;;;2.05;;
39190;SDS011;24916;51.676;6.614;2023-06-14T06:08:09;9.48;;;2.00;;
39190;SDS011;24916;51.676;6.614;2023-06-14T06:10:34;6.15;;;1.95;;
39190;SDS011;24916;51.676;6.614;2023-06-14T06:12:59;5.38;;;2.20;;
39190;SDS011;24916;51.676;6.614;2023-06-14T06:15:25;4.30;;;1.90;;
39190;SDS011;24916;51.676;6.614;2023-06-14T06:17:50;5.80;;;1.80;;
39190;SDS011;24916;51.676;6.614;2023-06-14T06:20:16;4.30;;;1.88;;
39190;SDS011;24916;51.676;6.614;2023-06-14T06:22:42;4.70;;;2.20;;
39190;SDS011;24916;51.676;6.614;2023-06-14T06:25:07;9.20;;;1.92;;
39190;SDS011;24916;51.676;6.614;2023-06-14T06:27:33;4.45;;;1.98;;
39190;SDS011;24916;51.676;6.614;2023-06-14T06:30:02;5.03;;;1.85;;
39190;SDS011;24916;51.676;6.614;2023-06-14T06:32:27;3.03;;;1.58;;
39190;SDS011;24916;51.676;6.614;2023-06-14T06:34:52;10.13;;;2.00;;
39190;SDS011;24916;51.676;6.614;2023-06-14T06:37:17;6.80;;;2.03;;
39190;SDS011;24916;51.676;6.614;2023-06-14T06:39:42;2.60;;;1.90;;
39190;SDS011;24916;51.676;6.614;2023-06-14T06:42:08;7.45;;;1.60;;
39190;SDS011;24916;51.676;6.614;2023-06-14T06:44:33;4.00;;;1.60;;
39190;SDS011;24916;51.676;6.614;2023-06-14T06:46:59;4.53;;;1.63;;
39190;SDS011;24916;51.676;6.614;2023-06-14T06:49:24;3.17;;;1.58;;
39190;SDS011;24916;51.676;6.614;2023-06-14T06:52:05;2.50;;;1.40;;
39190;SDS011;24916;51.676;6.614;2023-06-14T06:54:30;2.22;;;1.20;;
39190;SDS011;24916;51.676;6.614;2023-06-14T06:56:56;6.25;;;1.42;;
39190;SDS011;24916;51.676;6.614;2023-06-14T06:59:21;3.47;;;1.27;;
39190;SDS011;24916;51.676;6.614;2023-06-14T07:01:46;1.75;;;1.20;;
39190;SDS011;24916;51.676;6.614;2023-06-14T07:04:12;6.97;;;2.07;;
39190;SDS011;24916;51.676;6.614;2023-06-14T07:06:37;8.52;;;1.30;;
39190;SDS011;24916;51.676;6.614;2023-06-14T07:09:03;6.10;;;1.60;;
39190;SDS011;24916;51.676;6.614;2023-06-14T07:11:30;2.30;;;1.15;;
39190;SDS011;24916;51.676;6.614;2023-06-14T07:13:55;1.83;;;1.60;;
39190;SDS011;24916;51.676;6.614;2023-06-14T07:16:20;3.58;;;1.58;;
39190;SDS011;24916;51.676;6.614;2023-06-14T07:18:46;1.85;;;1.30;;
39190;SDS011;24916;51.676;6.614;2023-06-14T07:21:11;2.80;;;1.47;;
39190;SDS011;24916;51.676;6.614;2023-06-14T07:23:36;2.28;;;1.38;;
39190;SDS011;24916;51.676;6.614;2023-06-14T07:26:01;3.30;;;1.63;;
39190;SDS011;24916;51.676;6.614;2023-06-14T07:28:27;4.63;;;1.50;;
39190;SDS011;24916;51.676;6.614;2023-06-14T07:30:53;6.57;;;1.58;;
39190;SDS011;24916;51.676;6.614;2023-06-14T07:33:18;1.88;;;1.45;;
39190;SDS011;24916;51.676;6.614;2023-06-14T07:35:43;8.50;;;1.53;;
39190;SDS011;24916;51.676;6.614;2023-06-14T07:38:08;5.33;;;1.60;;
39190;SDS011;24916;51.676;6.614;2023-06-14T07:40:33;4.33;;;1.70;;
39190;SDS011;24916;51.676;6.614;2023-06-14T07:42:59;4.60;;;2.05;;
39190;SDS011;24916;51.676;6.614;2023-06-14T07:45:24;4.53;;;1.50;;
39190;SDS011;24916;51.676;6.614;2023-06-14T07:47:49;2.03;;;1.20;;
39190;SDS011;24916;51.676;6.614;2023-06-14T07:50:16;2.75;;;1.38;;
39190;SDS011;24916;51.676;6.614;2023-06-14T07:52:42;8.90;;;1.27;;
39190;SDS011;24916;51.676;6.614;2023-06-14T07:55:07;5.20;;;1.35;;
39190;SDS011;24916;51.676;6.614;2023-06-14T07:57:32;5.03;;;1.80;;
39190;SDS011;24916;51.676;6.614;2023-06-14T07:59:58;6.15;;;1.50;;
39190;SDS011;24916;51.676;6.614;2023-06-14T08:02:23;2.03;;;1.27;;
39190;SDS011;24916;51.676;6.614;2023-06-14T08:04:48;5.40;;;1.45;;
39190;SDS011;24916;51.676;6.614;2023-06-14T08:07:14;8.05;;;1.20;;
39190;SDS011;24916;51.676;6.614;2023-06-14T08:09:39;4.55;;;1.40;;
39190;SDS011;24916;51.676;6.614;2023-06-14T08:12:05;7.18;;;2.40;;
39190;SDS011;24916;51.676;6.614;2023-06-14T08:14:37;2.95;;;1.48;;
39190;SDS011;24916;51.676;6.614;2023-06-14T08:17:02;4.45;;;1.25;;
39190;SDS011;24916;51.676;6.614;2023-06-14T08:19:28;2.60;;;1.50;;
39190;SDS011;24916;51.676;6.614;2023-06-14T08:21:53;11.23;;;1.73;;
39190;SDS011;24916;51.676;6.614;2023-06-14T08:24:23;6.88;;;1.15;;
39190;SDS011;24916;51.676;6.614;2023-06-14T08:26:54;4.05;;;1.48;;
39190;SDS011;24916;51.676;6.614;2023-06-14T08:29:21;2.75;;;1.42;;
39190;SDS011;24916;51.676;6.614;2023-06-14T08:31:46;2.78;;;1.40;;
39190;SDS011;24916;51.676;6.614;2023-06-14T08:34:12;3.88;;;1.30;;
39190;SDS011;24916;51.676;6.614;2023-06-14T08:36:37;2.63;;;1.38;;
39190;SDS011;24916;51.676;6.614;2023-06-14T08:39:02;4.60;;;1.52;;
39190;SDS011;24916;51.676;6.614;2023-06-14T08:41:28;2.30;;;1.45;;
39190;SDS011;24916;51.676;6.614;2023-06-14T08:43:54;1.65;;;1.30;;
39190;SDS011;24916;51.676;6.614;2023-06-14T08:46:20;8.77;;;1.58;;
39190;SDS011;24916;51.676;6.614;2023-06-14T08:48:50;6.13;;;1.70;;
39190;SDS011;24916;51.676;6.614;2023-06-14T08:51:19;2.97;;;1.40;;
39190;SDS011;24916;51.676;6.614;2023-06-14T08:53:46;7.20;;;1.40;;
39190;SDS011;24916;51.676;6.614;2023-06-14T08:56:15;4.82;;;1.10;;
39190;SDS011;24916;51.676;6.614;2023-06-14T08:58:44;4.15;;;1.50;;
39190;SDS011;24916;51.676;6.614;2023-06-14T09:01:10;5.57;;;2.17;;
39190;SDS011;24916;51.676;6.614;2023-06-14T09:03:39;1.25;;;1.10;;
39190;SDS011;24916;51.676;6.614;2023-06-14T09:06:06;4.63;;;1.27;;
39190;SDS011;24916;51.676;6.614;2023-06-14T09:08:34;3.63;;;1.17;;
39190;SDS011;24916;51.676;6.614;2023-06-14T09:11:00;3.97;;;1.33;;
39190;SDS011;24916;51.676;6.614;2023-06-14T09:13:26;2.13;;;1.10;;
39190;SDS011;24916;51.676;6.614;2023-06-14T09:15:51;4.88;;;1.30;;
39190;SDS011;24916;51.676;6.614;2023-06-14T09:18:17;5.28;;;1.33;;
39190;SDS011;24916;51.676;6.614;2023-06-14T09:20:42;3.47;;;1.27;;
39190;SDS011;24916;51.676;6.614;2023-06-14T09:23:08;6.10;;;1.38;;
39190;SDS011;24916;51.676;6.614;2023-06-14T09:25:43;11.80;;;1.20;;
39190;SDS011;24916;51.676;6.614;2023-06-14T09:28:08;2.63;;;1.10;;
39190;SDS011;24916;51.676;6.614;2023-06-14T09:30:34;2.35;;;1.15;;
39190;SDS011;24916;51.676;6.614;2023-06-14T09:32:59;5.13;;;1.20;;
39190;SDS011;24916;51.676;6.614;2023-06-14T09:35:24;2.83;;;1.60;;
39190;SDS011;24916;51.676;6.614;2023-06-14T09:37:50;5.13;;;1.20;;
39190;SDS011;24916;51.676;6.614;2023-06-14T09:40:19;1.35;;;1.17;;
39190;SDS011;24916;51.676;6.614;2023-06-14T09:42:45;0.93;;;0.88;;
39190;SDS011;24916;51.676;6.614;2023-06-14T09:45:10;3.13;;;0.90;;
39190;SDS011;24916;51.676;6.614;2023-06-14T09:47:37;5.43;;;1.30;;
39190;SDS011;24916;51.676;6.614;2023-06-14T09:50:03;2.25;;;1.00;;
39190;SDS011;24916;51.676;6.614;2023-06-14T09:52:28;1.63;;;1.00;;
39190;SDS011;24916;51.676;6.614;2023-06-14T09:54:55;2.95;;;1.10;;
39190;SDS011;24916;51.676;6.614;2023-06-14T09:57:21;4.32;;;1.30;;
39190;SDS011;24916;51.676;6.614;2023-06-14T09:59:47;0.80;;;0.75;;
39190;SDS011;24916;51.676;6.614;2023-06-14T10:05:02;2.65;;;1.35;;
39190;SDS011;24916;51.676;6.614;2023-06-14T10:07:30;1.85;;;1.33;;
39190;SDS011;24916;51.676;6.614;2023-06-14T10:09:56;2.40;;;1.00;;
39190;SDS011;24916;51.676;6.614;2023-06-14T10:12:22;7.82;;;1.50;;
39190;SDS011;24916;51.676;6.614;2023-06-14T10:14:51;5.25;;;1.25;;
39190;SDS011;24916;51.676;6.614;2023-06-14T10:18:01;4.10;;;1.30;;
39190;SDS011;24916;51.676;6.614;2023-06-14T10:22:48;2.92;;;1.30;;
39190;SDS011;24916;51.676;6.614;2023-06-14T10:25:27;6.65;;;1.25;;
39190;SDS011;24916;51.676;6.614;2023-06-14T10:28:01;7.25;;;1.25;;
39190;SDS011;24916;51.676;6.614;2023-06-14T10:30:27;4.35;;;1.33;;
39190;SDS011;24916;51.676;6.614;2023-06-14T10:33:07;2.17;;;0.90;;
39190;SDS011;24916;51.676;6.614;2023-06-14T10:35:33;1.92;;;1.00;;
39190;SDS011;24916;51.676;6.614;2023-06-14T10:38:08;2.03;;;1.05;;
39190;SDS011;24916;51.676;6.614;2023-06-14T10:40:33;1.83;;;1.30;;
39190;SDS011;24916;51.676;6.614;2023-06-14T10:42:59;1.48;;;1.10;;
39190;SDS011;24916;51.676;6.614;2023-06-14T10:45:24;3.08;;;1.20;;
39190;SDS011;24916;51.676;6.614;2023-06-14T10:47:49;1.97;;;1.20;;
39190;SDS011;24916;51.676;6.614;2023-06-14T10:50:17;8.45;;;1.08;;
39190;SDS011;24916;51.676;6.614;2023-06-14T10:52:44;3.50;;;0.70;;
39190;SDS011;24916;51.676;6.614;2023-06-14T10:57:36;0.82;;;0.55;;
39190;SDS011;24916;51.676;6.614;2023-06-14T11:00:05;1.30;;;0.80;;
39190;SDS011;24916;51.676;6.614;2023-06-14T11:05:03;4.78;;;0.90;;
39190;SDS011;24916;51.676;6.614;2023-06-14T11:07:37;4.00;;;0.80;;
39190;SDS011;24916;51.676;6.614;2023-06-14T11:10:22;1.27;;;0.70;;
39190;SDS011;24916;51.676;6.614;2023-06-14T11:12:51;0.88;;;0.75;;
39190;SDS011;24916;51.676;6.614;2023-06-14T11:15:19;2.33;;;0.90;;
39190;SDS011;24916;51.676;6.614;2023-06-14T11:17:51;2.20;;;0.70;;
39190;SDS011;24916;51.676;6.614;2023-06-14T11:20:18;1.90;;;0.60;;
39190;SDS011;24916;51.676;6.614;2023-06-14T11:22:44;2.03;;;0.70;;
39190;SDS011;24916;51.676;6.614;2023-06-14T11:25:09;1.48;;;0.55;;
39190;SDS011;24916;51.676;6.614;2023-06-14T11:27:35;6.97;;;0.90;;
39190;SDS011;24916;51.676;6.614;2023-06-14T11:30:00;1.95;;;0.85;;
39190;SDS011;24916;51.676;6.614;2023-06-14T11:32:25;2.78;;;0.88;;
39190;SDS011;24916;51.676;6.614;2023-06-14T11:34:51;1.67;;;0.77;;
39190;SDS011;24916;51.676;6.614;2023-06-14T11:37:16;1.63;;;0.87;;
39190;SDS011;24916;51.676;6.614;2023-06-14T11:39:45;1.05;;;0.68;;
39190;SDS011;24916;51.676;6.614;2023-06-14T11:42:17;4.63;;;1.65;;
39190;SDS011;24916;51.676;6.614;2023-06-14T11:44:45;3.28;;;0.75;;
39190;SDS011;24916;51.676;6.614;2023-06-14T11:47:11;5.53;;;0.77;;
39190;SDS011;24916;51.676;6.614;2023-06-14T11:49:36;2.27;;;0.80;;
39190;SDS011;24916;51.676;6.614;2023-06-14T11:52:01;4.65;;;0.80;;
39190;SDS011;24916;51.676;6.614;2023-06-14T11:54:27;8.57;;;1.08;;
39190;SDS011;24916;51.676;6.614;2023-06-14T11:56:52;4.07;;;1.47;;
39190;SDS011;24916;51.676;6.614;2023-06-14T11:59:17;2.83;;;0.80;;
39190;SDS011;24916;51.676;6.614;2023-06-14T12:01:42;1.63;;;0.77;;
39190;SDS011;24916;51.676;6.614;2023-06-14T12:04:08;1.63;;;0.60;;
39190;SDS011;24916;51.676;6.614;2023-06-14T12:06:33;2.33;;;1.00;;
39190;SDS011;24916;51.676;6.614;2023-06-14T12:09:03;4.32;;;1.08;;
39190;SDS011;24916;51.676;6.614;2023-06-14T12:11:33;2.20;;;0.90;;
39190;SDS011;24916;51.676;6.614;2023-06-14T12:13:59;2.00;;;0.90;;
39190;SDS011;24916;51.676;6.614;2023-06-14T12:16:29;1.23;;;0.65;;
39190;SDS011;24916;51.676;6.614;2023-06-14T12:18:55;3.33;;;1.05;;
39190;SDS011;24916;51.676;6.614;2023-06-14T12:21:22;2.63;;;0.70;;
39190;SDS011;24916;51.676;6.614;2023-06-14T12:23:48;0.60;;;0.60;;
39190;SDS011;24916;51.676;6.614;2023-06-14T12:26:14;4.00;;;1.10;;
39190;SDS011;24916;51.676;6.614;2023-06-14T12:28:41;1.48;;;0.70;;
39190;SDS011;24916;51.676;6.614;2023-06-14T12:31:10;1.92;;;0.80;;
39190;SDS011;24916;51.676;6.614;2023-06-14T12:33:36;3.97;;;1.20;;
39190;SDS011;24916;51.676;6.614;2023-06-14T12:36:03;4.13;;;1.07;;
39190;SDS011;24916;51.676;6.614;2023-06-14T12:38:28;1.83;;;0.80;;
39190;SDS011;24916;51.676;6.614;2023-06-14T12:40:53;2.10;;;0.70;;
39190;SDS011;24916;51.676;6.614;2023-06-14T12:43:18;3.70;;;0.70;;
39190;SDS011;24916;51.676;6.614;2023-06-14T12:45:44;4.18;;;0.90;;
39190;SDS011;24916;51.676;6.614;2023-06-14T12:48:09;9.00;;;1.40;;
39190;SDS011;24916;51.676;6.614;2023-06-14T12:50:34;6.67;;;1.90;;
39190;SDS011;24916;51.676;6.614;2023-06-14T12:52:59;2.30;;;1.20;;
39190;SDS011;24916;51.676;6.614;2023-06-14T12:55:25;1.52;;;1.27;;
39190;SDS011;24916;51.676;6.614;2023-06-14T12:57:50;2.85;;;1.15;;
39190;SDS011;24916;51.676;6.614;2023-06-14T13:00:16;3.70;;;0.88;;
39190;SDS011;24916;51.676;6.614;2023-06-14T13:02:42;2.70;;;1.30;;
39190;SDS011;24916;51.676;6.614;2023-06-14T13:05:07;1.83;;;1.00;;
39190;SDS011;24916;51.676;6.614;2023-06-14T13:07:32;1.92;;;1.15;;
39190;SDS011;24916;51.676;6.614;2023-06-14T13:09:57;2.10;;;0.90;;
39190;SDS011;24916;51.676;6.614;2023-06-14T13:12:23;1.45;;;0.80;;
39190;SDS011;24916;51.676;6.614;2023-06-14T13:14:48;2.75;;;1.08;;
39190;SDS011;24916;51.676;6.614;2023-06-14T13:17:13;6.27;;;1.67;;
39190;SDS011;24916;51.676;6.614;2023-06-14T13:19:39;1.13;;;0.88;;
39190;SDS011;24916;51.676;6.614;2023-06-14T13:22:04;3.22;;;0.98;;
39190;SDS011;24916;51.676;6.614;2023-06-14T13:24:30;4.82;;;2.00;;
39190;SDS011;24916;51.676;6.614;2023-06-14T13:26:56;1.17;;;0.80;;
39190;SDS011;24916;51.676;6.614;2023-06-14T13:29:22;4.53;;;0.90;;
39190;SDS011;24916;51.676;6.614;2023-06-14T13:31:48;1.35;;;1.00;;
39190;SDS011;24916;51.676;6.614;2023-06-14T13:34:13;3.20;;;1.00;;
39190;SDS011;24916;51.676;6.614;2023-06-14T13:36:38;1.53;;;0.90;;
39190;SDS011;24916;51.676;6.614;2023-06-14T13:39:04;2.15;;;1.05;;
39190;SDS011;24916;51.676;6.614;2023-06-14T13:41:31;0.73;;;0.73;;
39190;SDS011;24916;51.676;6.614;2023-06-14T13:43:58;6.07;;;1.00;;
39190;SDS011;24916;51.676;6.614;2023-06-14T13:46:24;1.58;;;0.93;;
39190;SDS011;24916;51.676;6.614;2023-06-14T13:48:49;4.72;;;1.00;;
39190;SDS011;24916;51.676;6.614;2023-06-14T13:51:14;2.13;;;1.10;;
39190;SDS011;24916;51.676;6.614;2023-06-14T13:53:40;1.73;;;1.17;;
39190;SDS011;24916;51.676;6.614;2023-06-14T13:56:05;3.50;;;1.17;;
39190;SDS011;24916;51.676;6.614;2023-06-14T13:58:30;2.92;;;1.00;;
39190;SDS011;24916;51.676;6.614;2023-06-14T14:00:56;2.43;;;1.40;;
39190;SDS011;24916;51.676;6.614;2023-06-14T14:03:21;2.95;;;1.58;;
39190;SDS011;24916;51.676;6.614;2023-06-14T14:05:47;3.15;;;1.20;;
39190;SDS011;24916;51.676;6.614;2023-06-14T14:08:12;1.50;;;1.20;;
39190;SDS011;24916;51.676;6.614;2023-06-14T14:10:37;2.55;;;1.25;;
39190;SDS011;24916;51.676;6.614;2023-06-14T14:13:03;4.10;;;1.58;;
39190;SDS011;24916;51.676;6.614;2023-06-14T14:15:28;7.23;;;1.23;;
39190;SDS011;24916;51.676;6.614;2023-06-14T14:17:54;4.13;;;1.33;;
39190;SDS011;24916;51.676;6.614;2023-06-14T14:20:19;2.70;;;1.20;;
39190;SDS011;24916;51.676;6.614;2023-06-14T14:22:44;9.93;;;1.58;;
39190;SDS011;24916;51.676;6.614;2023-06-14T14:25:10;3.47;;;1.40;;
39190;SDS011;24916;51.676;6.614;2023-06-14T14:27:35;2.67;;;1.30;;
39190;SDS011;24916;51.676;6.614;2023-06-14T14:30:01;4.10;;;1.20;;
39190;SDS011;24916;51.676;6.614;2023-06-14T14:32:26;4.15;;;2.15;;
39190;SDS011;24916;51.676;6.614;2023-06-14T14:34:51;3.17;;;1.73;;
39190;SDS011;24916;51.676;6.614;2023-06-14T14:37:16;2.53;;;1.30;;
39190;SDS011;24916;51.676;6.614;2023-06-14T14:39:43;9.53;;;1.30;;
39190;SDS011;24916;51.676;6.614;2023-06-14T14:42:09;1.98;;;1.08;;
39190;SDS011;24916;51.676;6.614;2023-06-14T14:44:36;3.00;;;1.30;;
39190;SDS011;24916;51.676;6.614;2023-06-14T14:47:01;3.13;;;1.50;;
39190;SDS011;24916;51.676;6.614;2023-06-14T14:49:26;3.10;;;1.58;;
39190;SDS011;24916;51.676;6.614;2023-06-14T14:51:51;8.20;;;1.87;;
39190;SDS011;24916;51.676;6.614;2023-06-14T14:54:17;4.33;;;1.90;;
39190;SDS011;24916;51.676;6.614;2023-06-14T14:56:42;3.00;;;1.53;;